• Join FlightAware (Why Join?)
  • Login
  • US Flag 
09:08AM EDT


 

Airport Tracker/Info


-or-


 

Live Flight TrackerFlight Track Log ✈ N912MF ✈ 23-Apr-2012 ✈ KGTF - KBFI

Flight Track Log - Related Links

Times and Time Zones

All times are in EDT time to prevent confusion due to time zone crossing. See the N912MF flight status page for this flight to view local times or setup timezone preferences in your user account.

Time Position Orientation Groundspeed Altitude Reporting Facility
EDT Latitude Longitude Course Direction KTS MPH feet Rate Location/Type
04:16AM 47.4650 -111.4322 278° West 156 180 6,100  Level Salt Lake Center
04:17AM 47.4708 -111.4919 276° West 148 170 8,200 2,040 Climbing Salt Lake Center
04:18AM 47.4747 -111.5514 276° West 147 169 10,200 2,040 Climbing Salt Lake Center
04:19AM 47.4789 -111.6075 275° West 142 163 12,400 1,980 Climbing Salt Lake Center
04:20AM 47.4819 -111.6589 277° West 134 154 14,300 1,740 Climbing Salt Lake Center
04:21AM 47.4861 -111.7089 275° West 127 146 15,900 1,620 Climbing Salt Lake Center
04:22AM 47.4894 -111.7622 276° West 128 147 17,600 1,380 Climbing Salt Lake Center
04:23AM 47.4931 -111.8158 276° West 129 148 18,700 1,200 Climbing Salt Lake Center
04:24AM 47.4969 -111.8725 276° West 135 155 20,000 600 Climbing Salt Lake Center
04:25AM 47.5019 -111.9461 277° West 177 204 20,000  Level Salt Lake Center
04:26AM 47.5089 -112.0336 276° West 214 246 20,000  Level Salt Lake Center
04:27AM 47.5153 -112.1236 275° West 220 253 20,000  Level Salt Lake Center
04:28AM 47.5208 -112.2161 275° West 225 259 20,000  Level Salt Lake Center
04:29AM 47.5264 -112.3072 275° West 223 257 20,000  Level Salt Lake Center
04:30AM 47.5317 -112.3989 276° West 224 258 20,000  Level Salt Lake Center
04:31AM 47.5378 -112.4889 276° West 222 255 20,000  Level Salt Lake Center
04:32AM 47.5439 -112.5789 275° West 221 254 20,000  Level Salt Lake Center
04:33AM 47.5492 -112.6694 276° West 221 254 20,000  Level Salt Lake Center
04:34AM 47.5561 -112.7606 274° West 222 255 20,000  Level Salt Lake Center
04:35AM 47.5606 -112.8522 276° West 223 257 20,000  Level Salt Lake Center
04:36AM 47.5669 -112.9400 276° West 222 255 20,000  Level Salt Lake Center
04:37AM 47.5733 -113.0319 274° West 223 257 20,000  Level Salt Lake Center
04:38AM 47.5781 -113.1228 274° West 222 255 20,000  Level Salt Lake Center
04:39AM 47.5825 -113.2150 275° West 223 257 20,000  Level Salt Lake Center
04:40AM 47.5878 -113.3072 275° West 225 259 20,000  Level Salt Lake Center
04:41AM 47.5931 -113.3997 276° West 225 259 20,000  Level Salt Lake Center
04:42AM 47.5994 -113.4906 275° West 223 257 20,000  Level Salt Lake Center
04:43AM 47.6044 -113.5839 274° West 225 259 20,000  Level Salt Lake Center
04:44AM 47.6089 -113.6761 274° West 226 260 20,000  Level Salt Lake Center
04:45AM 47.6131 -113.7678 274° West 224 258 20,000  Level Salt Lake Center
04:46AM 47.6172 -113.8575 275° West 220 253 20,000  Level Salt Lake Center
04:47AM 47.6228 -113.9511 274° West 224 258 20,000  Level Salt Lake Center
04:48AM 47.6275 -114.0442 274° West 226 260 20,000  Level Salt Lake Center
04:49AM 47.6317 -114.1378 274° West 227 261 20,000  Level Salt Lake Center
04:50AM 47.6364 -114.2319 274° West 228 262 20,000  Level Salt Lake Center
04:51AM 47.6411 -114.3272 274° West 230 265 20,000  Level Salt Lake Center
04:52AM 47.6456 -114.4225 274° West 231 266 20,000  Level Salt Lake Center
04:53AM 47.6503 -114.5181 274° West 231 266 20,000  Level Salt Lake Center
04:54AM 47.6550 -114.6150 274° West 234 269 20,000  Level Salt Lake Center
04:55AM 47.6592 -114.7136 274° West 237 273 20,000  Level Salt Lake Center
04:56AM 47.6633 -114.8147 274° West 241 277 20,000  Level Salt Lake Center
04:57AM 47.6678 -114.9136 273° West 241 277 20,000  Level Salt Lake Center
04:58AM 47.6717 -115.0111 273° West 239 275 20,000 -60 Level Salt Lake Center
04:59AM 47.6753 -115.1067 273° West 235 270 19,900  Descending Salt Lake Center
05:00AM 47.6792 -115.2031 274° West 234 269 20,000  Climbing Salt Lake Center
05:01AM 47.6833 -115.3017 273° West 237 273 20,000  Level Salt Lake Center
05:02AM 47.6867 -115.4000 273° West 238 274 20,000 -60 Level Salt Lake Center
05:03AM 47.6906 -115.4975 273° West 238 274 19,900 -60 Descending Salt Lake Center
05:04AM 47.6939 -115.5947 273° West 237 273 19,900  Level Salt Lake Center
05:05AM 47.6975 -115.6894 273° West 234 269 20,000  Climbing Salt Lake Center
05:06AM 47.7011 -115.7814 272° West 228 262 20,000 600 Level Salt Lake Center
05:07AM 47.7031 -115.8558 272° West 193 222 21,300 960 Climbing Salt Lake Center
05:08AM 47.7050 -115.9244 274° West 172 198 22,000 300 Climbing Salt Lake Center
05:09AM 47.7083 -116.0022 272° West 183 211 22,000  Level Salt Lake Center
05:10AM 47.7103 -116.0969 273° West 204 235 22,000  Level Salt Lake Center
05:11AM 47.7131 -116.1872 273° West 214 246 22,000  Level Salt Lake Center
05:12AM 47.7164 -116.2783 272° West 219 252 22,000  Level Salt Lake Center
05:13AM 47.7192 -116.3875 273° West 221 254 22,000  Level Seattle Center
05:14AM 47.7225 -116.4772 273° West 219 252 22,000  Level Seattle Center
05:15AM 47.7253 -116.5683 273° West 220 253 22,000  Level Seattle Center
05:16AM 47.7286 -116.6583 272° West 221 254 22,000  Level Seattle Center
05:17AM 47.7308 -116.7492 273° West 221 254 22,000  Level Seattle Center
05:18AM 47.7339 -116.8414 272° West 224 258 22,000  Level Seattle Center
05:19AM 47.7364 -116.9347 272° West 227 261 22,000  Level Seattle Center
05:20AM 47.7389 -117.0272 273° West 228 262 22,000  Level Seattle Center
05:21AM 47.7417 -117.1183 272° West 225 259 22,000  Level Seattle Center
05:22AM 47.7433 -117.2061 272° West 224 258 22,000  Level Seattle Center
05:23AM 47.7458 -117.2992 271° West 222 255 22,000  Level Seattle Center
05:24AM 47.7469 -117.3897 271° West 221 254 22,000  Level Seattle Center
05:25AM 47.7483 -117.4806 272° West 222 255 22,000  Level Seattle Center
05:26AM 47.7506 -117.5719 271° West 222 255 22,000  Level Seattle Center
05:27AM 47.7519 -117.6619 271° West 220 253 22,000  Level Seattle Center
05:28AM 47.7531 -117.7519 272° West 219 252 22,000  Level Seattle Center
05:29AM 47.7553 -117.8414 271° West 218 251 22,000  Level Seattle Center
05:30AM 47.7558 -117.9297 271° West 216 249 22,000  Level Seattle Center
05:31AM 47.7567 -118.0200 272° West 218 251 22,000  Level Seattle Center
05:32AM 47.7583 -118.1114 272° West 220 253 22,000  Level Seattle Center
05:33AM 47.7600 -118.2019 272° West 220 253 22,000  Level Seattle Center
05:34AM 47.7619 -118.2919 270° West 219 252 22,000  Level Seattle Center
05:35AM 47.7622 -118.3822 272° West 219 252 22,000  Level Seattle Center
05:36AM 47.7642 -118.4739 270° West 221 254 22,000  Level Seattle Center
05:37AM 47.7644 -118.5653 271° West 221 254 22,000  Level Seattle Center
05:38AM 47.7650 -118.6553 271° West 220 253 22,000  Level Seattle Center
05:39AM 47.7661 -118.7472 271° West 223 257 22,000  Level Seattle Center
05:40AM 47.7667 -118.8389 271° West 222 255 22,000  Level Seattle Center
05:41AM 47.7678 -118.9311 271° West 223 257 22,000  Level Seattle Center
05:42AM 47.7683 -119.0242 271° West 225 259 22,000  Level Seattle Center
05:43AM 47.7692 -119.1178 271° West 226 260 22,000  Level Seattle Center
05:44AM 47.7697 -119.2083 269° West 222 255 22,000  Level Seattle Center
05:45AM 47.7686 -119.3000 272° West 222 255 22,000  Level Seattle Center
05:46AM 47.7706 -119.3936 270° West 225 259 22,000  Level Seattle Center
05:47AM 47.7700 -119.4844 271° West 222 255 22,000  Level Seattle Center
05:48AM 47.7714 -119.5767 269° West 223 257 22,000  Level Seattle Center
05:49AM 47.7706 -119.6683 265° West 223 257 22,000  Level Seattle Center
05:50AM 47.7656 -119.7578 260° West 220 253 22,000  Level Seattle Center
05:51AM 47.7556 -119.8461 264° West 218 251 22,000  Level Seattle Center
05:52AM 47.7494 -119.9339 263° West 215 247 22,000  Level Seattle Center
05:53AM 47.7419 -120.0208 263° West 215 247 22,000  Level Seattle Center
05:54AM 47.7344 -120.1103 263° West 217 250 22,000  Level Seattle Center
05:55AM 47.7272 -120.1978 263° West 216 249 22,000 -360 Level Seattle Center
05:56AM 47.7200 -120.2894 263° West 221 254 21,300 -720 Descending Seattle Center
05:57AM 47.7119 -120.3856 263° West 231 266 20,600 -660 Descending Seattle Center
05:58AM 47.7039 -120.4836 262° West 238 274 20,000 -660 Descending Seattle Center
05:59AM 47.6944 -120.5803 262° West 238 274 19,300 -900 Descending Seattle Center
06:00AM 47.6850 -120.6803 263° West 242 278 18,200 -960 Descending Seattle Center
06:01AM 47.6747 -120.8008 263° West 245 282 17,100 -1,080 Descending Seattle Center
06:02AM 47.6628 -120.9364 262° West 243 280 15,700 -1,380 Descending Seattle Center
06:03AM 47.6539 -121.0353 262° West 244 281 14,400 -1,260 Descending Seattle Center
06:04AM 47.6447 -121.1344 263° West 245 282 13,200 -1,200 Descending Seattle Center
06:05AM 47.6369 -121.2289 261° West 238 274 12,200 -660 Descending Seattle Center
06:06AM 47.6269 -121.3233 262° West 232 267 11,900 -780 Descending Seattle Center
06:07AM 47.6178 -121.4167 263° West 231 266 10,600 -960 Descending Seattle Center
06:09AM 47.6092 -121.5133 262° West 237 273 10,000 -300 Descending Seattle Center
06:10AM 47.6006 -121.6022 261° West 223 257 10,000 -60 Level Seattle Center
06:11AM 47.5917 -121.6900 262° West 218 251 9,900 -720 Descending Seattle Center
06:12AM 47.5828 -121.7811 262° West 223 257 8,600 -1,320 Descending Seattle Center
06:13AM 47.5747 -121.8664 261° West 215 247 7,300 -1,500 Descending Seattle Center
06:14AM 47.5656 -121.9550 253° West 218 251 5,600 -1,680 Descending Seattle Center
06:15AM 47.5456 -122.0525 246° West 224 258 4,000 -1,380 Descending Seattle Center
06:16AM 47.5233 -122.1256 240° Southwest 221 254 2,900 -1,080 Descending Seattle Center
06:17AM 47.4983 -122.1886 250° West 172 198 1,900 -780 Descending Seattle Center
06:18AM 47.4853 -122.2408 302° West 136 157 1,400 -660 Descending Seattle Center
06:19AM 47.5011 -122.2781 331° Northwest 111 128 600 4,260 Descending Seattle Center
06:20AM 47.5233 -122.2964 331° Northwest 98 113 10,000 9,360 Climbing Seattle Center